CheckWX is a tool to help pilots better visualize weather data.  It is not intended as a substitute for an official pre-flight weather briefing.

19:05:09 UTC

KPNE METAR
Northeast Philadelphia Airport
Philadelphia, Pennsylvania, USA
Current

1 hour ago

KPNE 261754Z 05009KT 10SM CLR 09/M13 A3030 RMK AO2 SLP262 T00891133 10094 20011 58001 $
Observed
Mar-26 @ 17:54 UTC
Wind
  • 050° at 9 KTS
Visibility
10 SM
Flight Rules
VFR
Cloud Levels
  • Clear skies
Temperature
C / 48°F
Dewpoint
-13°C / 9°F
Humidity
20%
Altimeter
30.3" Hg
Pressure
1026.2 hPa
Previous

2 hours ago

KPNE 261654Z 02013G21KT 10SM CLR 08/M13 A3031 RMK AO2 SLP264 T00831133 $
Observed
Mar-26 @ 16:54 UTC
Wind
  • 020° at 13 KTS
  • Gusting to 21 KTS
Visibility
10 SM
Flight Rules
VFR
Cloud Levels
  • Clear skies
Temperature
C / 46°F
Dewpoint
-13°C / 9°F
Humidity
21%
Altimeter
30.31" Hg
Pressure
1026.4 hPa
Previous

3 hours ago

KPNE 261554Z 05014KT 10SM CLR 08/M13 A3031 RMK AO2 SLP265 T00781133 $
Observed
Mar-26 @ 15:54 UTC
Wind
  • 050° at 14 KTS
Visibility
10 SM
Flight Rules
VFR
Cloud Levels
  • Clear skies
Temperature
C / 46°F
Dewpoint
-13°C / 9°F
Humidity
21%
Altimeter
30.31" Hg
Pressure
1026.5 hPa